Current Conditions
Meist vereinzelt
Bew├Âlkt




Pressure
1005.92 (hPa) - 29.7 (inHG)
Visibility

10.0 (km) - 6.2 (miles)
   Temperature
20  °C
68°F
18  °C
Dewpoint
88  %
 Humidity
   Wind Speed
5  km/h
3  kts
3  mph
1.3  m/s
   Wind Direction
 260°
Due West
   Airport Data
LOWW
Location Vienna International Airport 36 km (22.37 mi)
Metar :LOWW 040720Z 26003KT 220V290 9999 SCT009 BKN017 BKN032 20/18 Q1006 BECMG 32011KT
Tue 4th August 09:20 am
   Raw Metar Info
Raw METAR is the most common format in the world for the transmission of observational weather data. It is highly standardized through the International Civil Aviation Organization (ICAO), which allows it to be understood throughout most of the world.
   API Info
Data Provided by
https://www.checkwx.com/weather/LOWW
   © Info
CSS/SVG/PHP scripts were developed by weather34.com for use in the weather34 template © 2015-2020

Guide Info provided by Metar-Wikipedia